Time;durP1;ratioP1;P1;durP2;ratioP2;P2;SDS_P1;SDS_P2;PMS_P1;PMS_P2;Temp;Humidity;BMP_temperature;BMP_pressure;BME280_temperature;BME280_humidity;BME280_pressure;Samples;Min_cycle;Max_cycle;Signal;HPM_P1;HPM_P2
2022/08/13 00:01:40;;;;;;;6.80;6.20;;;;;;;22.31;51.28;94672.19;5004327;28;20199;-62
2022/08/13 00:04:13;;;;;;;6.22;5.70;;;;;;;22.39;50.67;94672.66;5004281;28;20246;-62
2022/08/13 00:09:10;;;;;;;7.47;6.55;;;;;;;22.41;50.45;94675.91;5010347;28;20219;-62
2022/08/13 00:14:25;;;;;;;6.60;5.85;;;;;;;22.43;50.42;94668.47;5009089;28;20246;-62
2022/08/13 00:16:52;;;;;;;6.35;5.85;;;;;;;22.31;50.67;94670.31;5010380;28;20241;-62
2022/08/13 00:19:19;;;;;;;6.90;6.30;;;;;;;22.30;50.55;94649.97;5013828;28;20226;-62
2022/08/13 00:21:46;;;;;;;6.40;5.82;;;;;;;22.27;50.73;94663.00;5012491;28;20226;-62
2022/08/13 00:24:12;;;;;;;6.75;6.10;;;;;;;22.25;50.88;94655.19;5012382;28;20228;-63
2022/08/13 00:26:37;;;;;;;7.40;5.93;;;;;;;22.15;51.49;94653.06;5011930;28;20237;-63
2022/08/13 00:29:03;;;;;;;6.65;5.53;;;;;;;22.20;51.10;94657.75;5014468;28;20293;-62
2022/08/13 00:31:31;;;;;;;6.00;5.50;;;;;;;22.20;50.97;94649.72;4998389;28;20255;-62
2022/08/13 00:33:57;;;;;;;6.30;5.70;;;;;;;22.26;50.63;94648.78;5012290;28;20297;-62
2022/08/13 00:36:23;;;;;;;6.28;5.32;;;;;;;22.20;50.88;94647.84;5001794;28;20862;-62
2022/08/13 00:38:53;;;;;;;5.78;5.30;;;;;;;22.22;50.70;94642.28;4980898;28;20605;-63
2022/08/13 00:41:37;;;;;;;6.00;5.43;;;;;;;22.26;50.69;94643.44;4977213;28;20219;-62
2022/08/13 00:44:05;;;;;;;6.03;5.53;;;;;;;22.29;50.60;94648.31;5011671;28;20203;-63
2022/08/13 00:46:32;;;;;;;6.03;5.53;;;;;;;22.11;51.20;94635.03;4990026;28;20227;-63
2022/08/13 00:48:58;;;;;;;7.55;5.80;;;;;;;22.14;51.18;94640.72;4996661;28;20231;-62
2022/08/13 00:51:26;;;;;;;6.50;5.88;;;;;;;22.16;50.87;94643.16;4986026;28;20220;-62
2022/08/13 00:53:54;;;;;;;5.97;5.40;;;;;;;22.08;50.93;94641.66;4988774;28;20243;-63
2022/08/13 00:56:22;;;;;;;6.18;5.30;;;;;;;22.16;50.66;94645.84;5007668;28;20252;-63
2022/08/13 00:58:49;;;;;;;5.57;5.05;;;;;;;22.07;50.69;94640.03;4990399;28;20211;-63
2022/08/13 01:01:15;;;;;;;6.65;4.97;;;;;;;22.08;50.35;94641.66;4990352;28;20330;-63
2022/08/13 01:03:41;;;;;;;5.25;4.85;;;;;;;22.12;50.05;94647.38;4989200;28;20279;-63
2022/08/13 01:06:08;;;;;;;5.40;4.90;;;;;;;22.12;50.39;94634.78;5004276;28;20224;-62
2022/08/13 01:08:36;;;;;;;5.15;4.75;;;;;;;22.13;50.09;94633.75;4995652;28;20223;-62
2022/08/13 01:11:11;;;;;;;4.78;4.38;;;;;;;22.05;50.34;94633.25;4992066;28;20214;-62
2022/08/13 01:13:39;;;;;;;5.10;4.70;;;;;;;21.95;50.77;94639.22;5008922;28;20219;-62
2022/08/13 01:16:09;;;;;;;4.43;4.13;;;;;;;21.99;50.54;94637.69;5008830;28;20223;-62
2022/08/13 01:18:36;;;;;;;6.28;4.90;;;;;;;22.08;50.39;94640.84;4989279;28;20228;-62
2022/08/13 01:21:42;;;;;;;4.93;4.45;;;;;;;22.03;50.54;94641.53;5003111;28;20372;-62
2022/08/13 01:24:10;;;;;;;5.00;4.60;;;;;;;21.98;50.88;94639.56;4954396;28;20228;-62
2022/08/13 01:26:36;;;;;;;4.90;4.60;;;;;;;22.02;50.71;94635.38;4955735;28;20252;-62
2022/08/13 01:29:04;;;;;;;5.03;4.57;;;;;;;21.88;51.25;94631.28;4955569;28;20240;-62
2022/08/13 01:31:31;;;;;;;5.40;4.90;;;;;;;21.88;51.40;94630.47;4973596;28;20411;-61
2022/08/13 01:33:59;;;;;;;5.10;4.70;;;;;;;21.86;51.14;94628.00;4970474;28;20230;-62
2022/08/13 01:36:26;;;;;;;5.60;4.78;;;;;;;21.83;50.96;94636.50;4989615;28;20224;-62
2022/08/13 01:38:52;;;;;;;4.90;4.32;;;;;;;21.83;51.09;94635.69;4987611;28;20242;-63
2022/08/13 01:41:18;;;;;;;4.95;4.55;;;;;;;21.79;51.33;94630.81;4972765;28;20243;-62
2022/08/13 01:43:45;;;;;;;4.53;4.13;;;;;;;21.79;51.33;94624.66;4975514;28;20242;-62
2022/08/13 01:46:12;;;;;;;4.75;4.30;;;;;;;21.71;51.61;94615.09;4965128;28;20286;-62
2022/08/13 01:51:34;;;;;;;4.55;4.25;;;;;;;21.65;51.79;94615.19;4992171;28;20342;-63
2022/08/13 01:54:01;;;;;;;5.70;5.20;;;;;;;21.81;51.51;94619.84;4971052;28;20237;-63
2022/08/13 01:56:29;;;;;;;4.82;4.40;;;;;;;21.78;51.54;94617.66;4986765;28;20230;-62
2022/08/13 01:58:58;;;;;;;5.13;4.72;;;;;;;21.84;51.47;94622.09;4974959;28;20220;-63
2022/08/13 02:01:25;;;;;;;4.90;4.50;;;;;;;21.80;51.79;94615.56;4985732;28;20315;-62
2022/08/13 02:03:56;;;;;;;5.15;4.75;;;;;;;21.81;51.64;94603.81;4989242;28;20224;-62
2022/08/13 02:06:30;;;;;;;5.20;4.80;;;;;;;21.75;51.89;94610.91;4992060;28;20257;-62
2022/08/13 02:08:59;;;;;;;4.95;4.63;;;;;;;21.64;52.12;94600.19;4989195;28;20227;-62
2022/08/13 02:11:31;;;;;;;5.53;5.03;;;;;;;21.65;52.14;94604.47;4985849;28;20242;-62
2022/08/13 02:13:57;;;;;;;5.38;4.90;;;;;;;21.72;52.27;94606.00;4988652;28;20215;-62
2022/08/13 02:16:22;;;;;;;4.90;4.50;;;;;;;21.76;52.15;94609.88;4989787;28;20230;-62
2022/08/13 02:18:52;;;;;;;6.13;5.45;;;;;;;21.77;51.99;94610.69;4994330;28;20228;-62
2022/08/13 02:21:20;;;;;;;5.20;4.80;;;;;;;21.77;52.01;94613.34;4990913;28;20230;-62
2022/08/13 02:23:56;;;;;;;5.03;4.50;;;;;;;21.72;52.19;94607.88;4980898;28;20234;-63
2022/08/13 02:26:23;;;;;;;5.25;4.75;;;;;;;21.66;52.61;94617.66;4993848;28;20280;-63
2022/08/13 02:28:54;;;;;;;5.82;5.38;;;;;;;21.67;52.38;94605.88;5008749;28;20202;-62
2022/08/13 02:31:20;;;;;;;5.28;4.80;;;;;;;21.75;52.13;94615.44;4990568;28;20219;-62
2022/08/13 02:33:46;;;;;;;5.47;5.00;;;;;;;21.70;52.44;94609.97;4999373;28;20231;-62
2022/08/13 02:36:12;;;;;;;5.35;4.95;;;;;;;21.72;52.33;94614.03;5001021;28;20224;-63
2022/08/13 02:38:38;;;;;;;5.35;4.95;;;;;;;21.66;52.39;94617.66;4990669;28;20242;-63
2022/08/13 02:43:50;;;;;;;4.88;4.53;;;;;;;21.59;52.82;94608.91;4988577;28;20278;-63
2022/08/13 02:46:16;;;;;;;5.20;4.80;;;;;;;21.56;53.04;94610.16;4991271;28;20257;-64
2022/08/13 02:48:42;;;;;;;5.45;4.95;;;;;;;21.63;52.98;94606.59;4995656;28;20326;-62
2022/08/13 02:51:10;;;;;;;5.70;5.20;;;;;;;21.60;52.80;94610.53;4999090;28;20295;-63
2022/08/13 02:53:37;;;;;;;5.50;5.10;;;;;;;21.55;52.80;94603.19;4978838;28;20227;-63
2022/08/13 02:56:05;;;;;;;5.95;5.43;;;;;;;21.53;52.99;94607.16;5013358;28;20221;-62
2022/08/13 02:58:31;;;;;;;6.63;5.13;;;;;;;21.61;52.48;94603.34;4987920;28;20220;-62
2022/08/13 03:00:58;;;;;;;7.00;4.68;;;;;;;21.59;52.21;94604.34;5000743;28;20245;-63
2022/08/13 03:03:24;;;;;;;5.03;4.38;;;;;;;21.60;52.63;94607.88;4991466;28;20224;-62
2022/08/13 03:05:49;;;;;;;5.80;5.20;;;;;;;21.43;53.04;94605.03;4989858;28;20290;-63
2022/08/13 03:08:15;;;;;;;6.75;4.70;;;;;;;21.52;52.88;94609.00;4979820;28;20557;-63
2022/08/13 03:10:41;;;;;;;5.90;5.30;;;;;;;21.63;52.56;94609.28;4994347;28;20202;-62
2022/08/13 03:13:25;;;;;;;5.97;5.05;;;;;;;21.40;53.16;94610.84;4987161;28;20758;-62
2022/08/13 03:15:54;;;;;;;5.15;4.70;;;;;;;21.50;52.87;94611.09;4999429;28;20231;-62
2022/08/13 03:18:19;;;;;;;5.95;5.25;;;;;;;21.27;54.48;94611.00;5005060;28;20222;-62
2022/08/13 03:20:44;;;;;;;6.20;5.68;;;;;;;21.31;54.75;94612.19;5005985;28;20238;-63
2022/08/13 03:23:10;;;;;;;5.93;5.25;;;;;;;21.35;54.75;94608.81;5008479;28;20199;-63
2022/08/13 03:25:36;;;;;;;5.93;5.43;;;;;;;21.44;54.59;94616.53;5012214;28;20230;-63
2022/08/13 03:28:03;;;;;;;5.43;5.00;;;;;;;21.36;54.79;94615.00;5010484;28;20226;-63
2022/08/13 03:30:33;;;;;;;6.03;5.53;;;;;;;21.27;55.08;94616.34;5008329;28;20219;-62
2022/08/13 03:33:07;;;;;;;5.97;5.45;;;;;;;21.28;55.21;94623.34;4999940;28;20273;-62
2022/08/13 03:35:35;;;;;;;6.35;5.60;;;;;;;21.37;54.83;94619.28;4984009;28;20220;-62
2022/08/13 03:38:01;;;;;;;6.88;5.53;;;;;;;21.43;54.30;94617.59;4969696;28;20235;-63
2022/08/13 03:41:00;;;;;;;6.00;5.60;;;;;;;21.43;54.25;94614.91;4984226;28;20223;-63
2022/08/13 03:43:15;;;;;;;5.55;5.13;;;;;;;21.46;54.54;94625.16;4972645;28;20297;-62
2022/08/13 03:45:41;;;;;;;5.85;5.35;;;;;;;21.52;54.18;94619.72;4978574;28;20256;-62
2022/08/13 03:48:06;;;;;;;5.70;5.20;;;;;;;21.55;53.57;94618.44;4979148;28;20223;-62
2022/08/13 03:50:33;;;;;;;6.47;5.63;;;;;;;21.52;53.77;94627.75;4987566;28;20220;-62
2022/08/13 03:53:03;;;;;;;5.72;5.32;;;;;;;21.46;53.88;94636.66;4987375;28;20228;-62
2022/08/13 03:55:30;;;;;;;6.72;5.70;;;;;;;21.47;53.53;94638.31;5008161;28;20222;-61
2022/08/13 03:57:57;;;;;;;5.97;5.47;;;;;;;21.44;54.27;94628.06;4996052;28;20229;-62
2022/08/13 04:00:23;;;;;;;5.80;5.40;;;;;;;21.42;54.13;94630.16;4986473;28;20235;-61
2022/08/13 04:02:50;;;;;;;5.70;5.25;;;;;;;21.32;54.59;94627.19;4994252;28;20474;-61
2022/08/13 04:05:18;;;;;;;5.60;5.20;;;;;;;21.35;54.50;94624.84;5007893;28;20287;-61
2022/08/13 04:07:44;;;;;;;6.45;5.90;;;;;;;21.49;53.96;94628.22;4982987;28;20228;-63
2022/08/13 04:10:11;;;;;;;6.75;6.13;;;;;;;21.50;54.08;94637.03;4999498;28;20311;-63
2022/08/13 04:12:38;;;;;;;7.40;5.80;;;;;;;21.58;53.62;94623.34;5008169;28;20520;-63
2022/08/13 04:15:06;;;;;;;6.25;5.75;;;;;;;21.54;54.30;94628.34;5000085;28;20230;-62
2022/08/13 04:17:35;;;;;;;7.07;6.30;;;;;;;21.51;54.38;94622.59;4984593;28;20224;-62
2022/08/13 04:20:02;;;;;;;6.63;6.03;;;;;;;21.52;54.68;94621.59;4980956;28;20200;-61
2022/08/13 04:22:28;;;;;;;6.40;5.80;;;;;;;21.48;54.70;94636.44;5014098;28;20230;-60
2022/08/13 04:24:53;;;;;;;5.85;5.35;;;;;;;21.56;54.65;94636.13;4995791;28;20277;-60
2022/08/13 04:27:19;;;;;;;6.03;5.43;;;;;;;21.60;53.70;94631.94;4986583;28;20301;-60
2022/08/13 04:29:44;;;;;;;6.18;5.32;;;;;;;21.55;53.97;94635.31;4982510;28;20215;-61
2022/08/13 04:32:10;;;;;;;5.70;5.22;;;;;;;21.68;53.39;94628.09;4984826;28;20267;-62
2022/08/13 04:34:35;;;;;;;7.15;5.40;;;;;;;21.65;53.11;94620.53;4977437;28;20226;-61
2022/08/13 04:37:01;;;;;;;5.82;5.32;;;;;;;21.69;53.00;94617.19;4979150;28;20228;-61
2022/08/13 04:39:27;;;;;;;6.55;5.63;;;;;;;21.80;52.94;94632.44;4979923;28;20223;-61
2022/08/13 04:41:53;;;;;;;5.97;5.38;;;;;;;21.75;52.65;94623.47;4986063;28;20231;-62
2022/08/13 04:44:19;;;;;;;8.35;5.38;;;;;;;21.73;52.41;94609.50;4981811;28;20278;-61
2022/08/13 04:46:44;;;;;;;6.07;5.38;;;;;;;21.72;52.63;94615.91;4981912;28;20311;-61
2022/08/13 04:49:11;;;;;;;5.45;4.95;;;;;;;21.81;52.54;94619.84;5001710;28;20227;-61
2022/08/13 04:51:37;;;;;;;7.15;5.20;;;;;;;21.76;52.59;94619.75;4996744;28;20212;-61
2022/08/13 04:54:02;;;;;;;7.03;5.25;;;;;;;21.85;52.24;94626.41;4988154;28;20539;-61
2022/08/13 04:56:28;;;;;;;5.90;5.40;;;;;;;21.79;52.61;94627.31;4992689;28;20617;-62
2022/08/13 04:58:54;;;;;;;5.20;4.80;;;;;;;21.83;51.82;94625.00;5019939;28;20203;-61
2022/08/13 05:01:21;;;;;;;5.50;5.00;;;;;;;21.80;51.75;94620.91;4991336;28;20222;-62
2022/08/13 05:03:47;;;;;;;5.53;5.03;;;;;;;21.85;51.78;94620.22;4984365;28;20228;-61
2022/08/13 05:06:19;;;;;;;5.53;5.13;;;;;;;21.83;51.87;94635.69;4998662;28;20234;-62
2022/08/13 05:08:51;;;;;;;5.68;5.18;;;;;;;21.80;52.06;94620.91;5006954;28;20242;-62
2022/08/13 05:11:19;;;;;;;6.00;5.25;;;;;;;21.86;51.93;94627.19;4998330;28;20572;-62
2022/08/13 05:13:45;;;;;;;6.85;5.25;;;;;;;21.85;52.24;94628.25;4982034;28;20208;-61
2022/08/13 05:16:14;;;;;;;6.10;4.75;;;;;;;21.72;53.30;94630.09;4995078;28;20687;-61
2022/08/13 05:18:44;;;;;;;5.97;5.47;;;;;;;21.86;52.82;94625.34;4984807;28;20787;-62
2022/08/13 05:21:10;;;;;;;6.32;5.75;;;;;;;21.90;52.71;94621.16;4998691;28;20223;-61
2022/08/13 05:23:38;;;;;;;6.47;5.88;;;;;;;21.94;52.52;94627.66;5007783;28;20221;-62
2022/08/13 05:26:04;;;;;;;5.95;5.53;;;;;;;21.99;52.15;94625.13;5006901;28;20256;-62
2022/08/13 05:28:31;;;;;;;6.45;5.93;;;;;;;22.00;52.10;94624.09;5007148;28;20234;-62
2022/08/13 05:30:57;;;;;;;6.80;5.78;;;;;;;22.06;52.26;94626.88;5017120;28;20226;-61
2022/08/13 05:33:25;;;;;;;5.82;5.32;;;;;;;22.14;52.32;94622.00;5001142;28;20269;-62
2022/08/13 05:36:02;;;;;;;6.63;5.90;;;;;;;22.29;52.02;94628.75;4979069;28;20339;-61
2022/08/13 05:38:30;;;;;;;6.43;5.80;;;;;;;21.93;53.12;94630.59;4984699;28;20238;-62
2022/08/13 05:41:00;;;;;;;6.85;6.30;;;;;;;22.08;52.86;94633.63;4987141;28;20231;-61
2022/08/13 05:43:38;;;;;;;7.60;7.00;;;;;;;22.05;53.06;94628.72;4987860;28;20300;-61
2022/08/13 05:46:09;;;;;;;7.88;6.30;;;;;;;21.86;53.77;94632.56;4991971;28;20270;-61
2022/08/13 05:48:37;;;;;;;6.68;6.07;;;;;;;21.97;53.29;94635.25;5001783;28;20227;-62
2022/08/13 05:51:07;;;;;;;6.85;6.22;;;;;;;22.06;53.21;94630.38;5005546;28;20235;-62
2022/08/13 05:53:33;;;;;;;7.25;6.65;;;;;;;22.09;53.02;94629.91;5005478;28;20223;-61
2022/08/13 05:55:59;;;;;;;6.63;5.95;;;;;;;22.18;52.65;94631.19;4985510;28;20207;-62
2022/08/13 05:58:25;;;;;;;9.05;6.00;;;;;;;22.35;52.10;94628.66;4986784;28;20642;-61
2022/08/13 06:03:36;;;;;;;7.75;6.60;;;;;;;22.35;52.09;94630.53;4983756;28;20282;-61
2022/08/13 06:06:05;;;;;;;6.55;6.05;;;;;;;22.41;51.68;94626.91;4983748;28;20219;-62
2022/08/13 06:08:38;;;;;;;8.43;6.40;;;;;;;22.39;51.26;94629.78;4989407;28;20214;-61
2022/08/13 06:11:06;;;;;;;6.13;5.63;;;;;;;22.41;51.46;94635.75;4973753;28;20507;-62
2022/08/13 06:13:33;;;;;;;8.25;7.43;;;;;;;22.42;52.18;94629.31;4995524;28;20218;-62
2022/08/13 06:16:00;;;;;;;8.63;7.50;;;;;;;22.51;52.10;94632.47;4983231;28;20239;-62
2022/08/13 06:18:31;;;;;;;8.27;7.60;;;;;;;22.58;51.72;94638.50;4972792;28;20219;-62
2022/08/13 06:21:00;;;;;;;7.57;6.95;;;;;;;22.37;52.56;94629.25;4979495;28;20228;-62
2022/08/13 06:23:28;;;;;;;7.43;6.75;;;;;;;22.30;52.69;94631.22;4984297;28;20210;-62
2022/08/13 06:25:55;;;;;;;8.52;7.07;;;;;;;22.31;52.05;94630.16;4976965;28;20212;-62
2022/08/13 06:28:25;;;;;;;8.88;7.28;;;;;;;22.31;51.73;94632.84;4974734;28;20220;-62
2022/08/13 06:30:53;;;;;;;6.75;6.18;;;;;;;22.34;51.29;94634.22;4985807;28;20220;-62
2022/08/13 06:33:22;;;;;;;7.35;6.65;;;;;;;22.48;50.73;94640.16;5002742;28;20227;-61
2022/08/13 06:35:50;;;;;;;7.60;6.90;;;;;;;22.62;50.75;94637.00;5005398;28;20226;-62
2022/08/13 06:38:18;;;;;;;9.57;7.28;;;;;;;22.79;50.20;94633.56;4999564;28;20226;-61
2022/08/13 06:40:45;;;;;;;7.72;6.28;;;;;;;22.72;50.05;94630.22;5007938;28;20297;-61
2022/08/13 06:43:14;;;;;;;7.60;7.00;;;;;;;22.76;49.78;94629.50;4995316;28;20219;-60
2022/08/13 06:45:42;;;;;;;7.65;6.55;;;;;;;22.86;49.65;94631.59;4989896;28;20345;-61
2022/08/13 06:48:09;;;;;;;9.05;6.90;;;;;;;23.04;49.52;94634.13;4989627;28;20230;-62
2022/08/13 06:50:34;;;;;;;7.32;6.75;;;;;;;22.86;49.73;94629.72;4987410;28;20229;-62
2022/08/13 06:53:06;;;;;;;7.38;6.18;;;;;;;23.03;49.17;94631.69;4987810;28;20204;-62
2022/08/13 06:55:36;;;;;;;9.55;7.68;;;;;;;23.26;48.89;94636.16;4975592;28;20224;-63
2022/08/13 06:58:09;;;;;;;8.68;7.78;;;;;;;23.33;49.22;94634.09;4977968;28;20224;-62
2022/08/13 07:00:38;;;;;;;7.93;7.22;;;;;;;23.40;49.15;94633.97;4980815;28;20232;-60
2022/08/13 07:03:07;;;;;;;9.15;7.90;;;;;;;23.47;48.89;94640.81;5000724;28;20364;-61
2022/08/13 07:05:40;;;;;;;8.70;7.90;;;;;;;23.24;49.19;94636.38;5004790;28;20222;-62
2022/08/13 07:08:07;;;;;;;9.02;8.25;;;;;;;23.26;49.29;94638.81;4999813;28;20361;-62
2022/08/13 07:10:34;;;;;;;9.05;8.20;;;;;;;23.50;48.85;94634.16;5000619;28;20254;-62
2022/08/13 07:13:02;;;;;;;9.85;8.35;;;;;;;23.43;49.22;94636.19;5004019;28;20230;-62
2022/08/13 07:15:29;;;;;;;9.05;8.25;;;;;;;23.62;48.64;94648.31;4995550;28;20359;-62
2022/08/13 07:17:55;;;;;;;8.73;7.82;;;;;;;23.44;49.07;94633.25;4993879;28;20231;-62
2022/08/13 07:20:22;;;;;;;9.57;8.07;;;;;;;23.56;48.76;94643.91;5004137;28;20585;-61
2022/08/13 07:22:47;;;;;;;9.52;8.73;;;;;;;23.65;48.54;94641.66;4984396;28;20207;-60
2022/08/13 07:25:14;;;;;;;8.45;7.70;;;;;;;23.65;47.94;94639.78;5000591;28;20222;-60
2022/08/13 07:27:41;;;;;;;9.07;8.13;;;;;;;23.63;48.25;94638.38;4993369;28;20258;-63
2022/08/13 07:30:08;;;;;;;8.50;7.70;;;;;;;22.97;49.86;94638.00;4997702;28;20228;-61
2022/08/13 07:32:37;;;;;;;8.43;7.65;;;;;;;23.21;49.59;94642.22;5006037;28;20215;-61
2022/08/13 07:35:04;;;;;;;7.82;7.10;;;;;;;22.96;50.28;94644.38;4996193;28;20238;-61
2022/08/13 07:37:30;;;;;;;9.10;8.20;;;;;;;22.97;50.38;94646.03;4998077;28;20226;-61
2022/08/13 07:39:56;;;;;;;8.23;7.05;;;;;;;23.32;49.08;94641.34;4980529;28;20658;-61
2022/08/13 07:42:22;;;;;;;8.07;7.38;;;;;;;23.24;49.57;94640.94;4994417;28;20218;-61
2022/08/13 07:44:52;;;;;;;8.10;7.30;;;;;;;23.32;49.07;94635.97;5003780;28;20295;-61
2022/08/13 07:47:20;;;;;;;9.15;7.30;;;;;;;23.50;48.39;94636.84;4987445;28;20211;-62
2022/08/13 07:49:46;;;;;;;8.05;7.35;;;;;;;23.08;49.78;94634.47;5002581;28;20233;-61
2022/08/13 07:52:13;;;;;;;8.13;7.38;;;;;;;23.10;49.52;94640.41;5012107;28;20230;-61
2022/08/13 07:54:43;;;;;;;7.93;7.32;;;;;;;23.25;49.49;94632.63;5008908;28;20243;-62
2022/08/13 07:57:10;;;;;;;7.35;6.65;;;;;;;23.28;49.24;94632.16;5003224;28;20231;-61
2022/08/13 07:59:36;;;;;;;7.72;7.03;;;;;;;23.57;48.48;94632.13;4995245;28;20230;-62
2022/08/13 08:02:05;;;;;;;7.85;7.15;;;;;;;23.69;47.91;94632.88;4987236;28;20200;-61
2022/08/13 08:04:34;;;;;;;7.97;7.20;;;;;;;23.37;48.24;94631.78;5006791;28;20233;-60
2022/08/13 08:07:01;;;;;;;8.02;6.80;;;;;;;23.56;47.67;94639.38;5019864;28;20280;-61
2022/08/13 08:09:29;;;;;;;10.73;7.53;;;;;;;23.67;47.55;94629.63;4998395;28;20299;-61
2022/08/13 08:14:44;;;;;;;8.30;7.45;;;;;;;23.53;47.88;94631.00;4988353;28;20243;-60
2022/08/13 08:17:11;;;;;;;8.32;7.47;;;;;;;23.19;49.08;94628.22;4983744;28;20204;-61
2022/08/13 08:19:41;;;;;;;8.15;7.53;;;;;;;23.37;48.24;94634.47;5008451;28;20249;-61
2022/08/13 08:22:11;;;;;;;7.88;7.20;;;;;;;23.44;47.91;94627.91;5009546;28;20230;-61
2022/08/13 08:24:37;;;;;;;7.38;6.65;;;;;;;23.59;47.85;94630.00;5003899;28;20314;-61
2022/08/13 08:27:11;;;;;;;8.40;7.25;;;;;;;23.82;47.58;94625.56;5003336;28;20223;-61
2022/08/13 08:29:40;;;;;;;8.27;7.55;;;;;;;23.86;47.42;94627.53;4994227;28;20310;-61
2022/08/13 08:32:07;;;;;;;7.45;6.75;;;;;;;23.99;46.80;94627.22;4991282;28;20342;-61
2022/08/13 08:34:34;;;;;;;8.68;7.75;;;;;;;24.03;46.33;94629.41;4984471;28;20224;-61
2022/08/13 08:37:00;;;;;;;8.02;7.35;;;;;;;23.92;46.93;94618.53;4998513;28;20227;-61
2022/08/13 08:44:57;;;;;;;8.65;7.45;;;;;;;23.98;46.31;94620.22;4981662;28;20395;-61
2022/08/13 08:47:32;;;;;;;8.15;7.55;;;;;;;23.97;46.24;94617.78;4986523;28;20211;-62
2022/08/13 08:49:58;;;;;;;9.02;8.20;;;;;;;23.98;46.06;94614.84;4982543;28;20207;-60
2022/08/13 08:55:16;;;;;;;7.82;7.22;;;;;;;23.87;46.73;94614.91;4980769;28;20282;-61
2022/08/13 08:57:46;;;;;;;8.45;7.30;;;;;;;23.91;46.93;94621.44;4982394;28;20274;-62
2022/08/13 09:00:18;;;;;;;8.55;7.50;;;;;;;23.85;46.64;94609.00;4991473;28;20220;-61
2022/08/13 09:02:48;;;;;;;9.43;8.35;;;;;;;23.91;46.90;94613.38;5005396;28;20245;-61
2022/08/13 09:05:16;;;;;;;7.95;7.30;;;;;;;23.76;47.11;94616.63;4986449;28;20698;-61
2022/08/13 09:07:49;;;;;;;8.35;7.30;;;;;;;23.70;47.46;94609.53;4987226;28;20214;-61
2022/08/13 09:10:16;;;;;;;9.38;8.05;;;;;;;23.79;47.33;94616.16;4977789;28;20375;-64
2022/08/13 09:12:44;;;;;;;9.85;8.85;;;;;;;23.60;47.98;94607.47;4990250;28;20799;-62
2022/08/13 09:15:11;;;;;;;10.13;8.43;;;;;;;23.60;47.85;94606.66;5000291;28;20220;-62
2022/08/13 09:17:38;;;;;;;11.00;8.43;;;;;;;23.65;48.15;94606.75;4995238;28;20222;-62
2022/08/13 09:20:10;;;;;;;8.95;8.23;;;;;;;23.59;47.96;94605.84;4992839;28;20219;-62
2022/08/13 09:22:36;;;;;;;8.93;8.18;;;;;;;23.66;47.92;94606.53;4995112;28;20230;-62
2022/08/13 09:25:02;;;;;;;19.60;17.67;;;;;;;23.76;47.49;94608.56;4995585;28;20230;-62
2022/08/13 09:27:30;;;;;;;9.63;8.73;;;;;;;23.82;48.03;94610.31;4973500;28;20223;-61
2022/08/13 09:29:56;;;;;;;9.88;8.85;;;;;;;23.85;47.68;94609.00;4995783;28;20250;-62
2022/08/13 09:32:22;;;;;;;9.38;8.48;;;;;;;23.91;47.71;94616.06;4999383;28;20202;-62
2022/08/13 09:34:48;;;;;;;10.70;8.48;;;;;;;23.93;47.79;94614.78;5010360;28;20353;-61
2022/08/13 09:37:13;;;;;;;9.27;8.40;;;;;;;23.88;47.95;94609.31;4998636;28;20306;-61
2022/08/13 09:40:06;;;;;;;9.75;8.75;;;;;;;23.92;48.05;94613.16;4993313;28;20231;-61
2022/08/13 09:42:44;;;;;;;9.18;8.38;;;;;;;23.84;48.26;94615.41;4987560;28;20223;-61
2022/08/13 09:45:10;;;;;;;9.60;8.75;;;;;;;23.85;48.16;94611.69;4990430;28;20535;-61
2022/08/13 09:47:35;;;;;;;11.82;9.82;;;;;;;23.85;49.30;94604.44;4986173;28;20219;-61
2022/08/13 09:50:02;;;;;;;9.68;8.82;;;;;;;23.78;49.79;94609.97;4986362;28;20208;-60
2022/08/13 09:52:27;;;;;;;9.57;8.77;;;;;;;23.62;49.72;94605.38;4988883;28;20223;-61
2022/08/13 09:54:52;;;;;;;10.38;9.30;;;;;;;23.61;50.12;94598.38;4975074;28;20246;-60
2022/08/13 09:57:20;;;;;;;9.70;8.77;;;;;;;23.53;50.35;94606.84;4984157;28;20236;-61
2022/08/13 09:59:46;;;;;;;11.02;9.90;;;;;;;23.50;50.80;94608.13;4980600;28;20343;-61
2022/08/13 10:02:12;;;;;;;10.68;9.68;;;;;;;23.55;50.87;94602.06;5006791;28;20242;-62
2022/08/13 10:04:39;;;;;;;10.20;9.30;;;;;;;23.48;51.10;94612.91;4989349;28;20199;-62
2022/08/13 10:07:07;;;;;;;10.05;9.15;;;;;;;23.42;51.61;94607.72;4988147;28;20226;-61
2022/08/13 10:09:34;;;;;;;10.38;9.40;;;;;;;23.36;52.24;94612.16;4978054;28;20300;-61
2022/08/13 10:12:01;;;;;;;10.23;9.32;;;;;;;23.33;52.39;94609.97;5008803;28;20214;-63
2022/08/13 10:14:27;;;;;;;10.88;9.88;;;;;;;23.40;52.70;94612.50;4996130;28;20217;-62
2022/08/13 10:16:53;;;;;;;11.40;10.18;;;;;;;23.33;53.19;94602.75;5005011;28;20212;-61
2022/08/13 10:19:19;;;;;;;11.60;10.57;;;;;;;23.33;53.68;94602.75;5004310;28;20220;-62
2022/08/13 10:21:44;;;;;;;11.85;10.65;;;;;;;23.29;53.81;94606.16;4996062;28;20254;-61
2022/08/13 10:24:10;;;;;;;11.35;10.45;;;;;;;23.20;54.02;94605.72;4997549;28;20502;-61
2022/08/13 10:26:40;;;;;;;12.15;11.00;;;;;;;23.24;54.96;94600.69;5006167;28;20231;-61
2022/08/13 10:29:08;;;;;;;12.18;11.00;;;;;;;23.15;56.30;94597.59;4990643;28;20207;-62
2022/08/13 10:31:33;;;;;;;13.48;12.10;;;;;;;23.09;57.93;94606.56;4989059;28;20310;-62
2022/08/13 10:33:59;;;;;;;15.60;13.30;;;;;;;23.13;58.54;94604.25;4981100;28;20385;-62
2022/08/13 10:36:28;;;;;;;14.40;13.00;;;;;;;23.01;59.64;94599.72;4987803;28;20234;-61
2022/08/13 10:38:55;;;;;;;14.27;12.98;;;;;;;23.01;59.46;94598.91;4989153;28;20241;-62
2022/08/13 10:41:21;;;;;;;13.25;12.02;;;;;;;22.92;59.37;94594.97;4989741;28;20206;-60
2022/08/13 10:43:48;;;;;;;15.15;13.82;;;;;;;22.80;60.84;94598.50;4995397;28;20226;-61
2022/08/13 10:46:16;;;;;;;16.15;14.55;;;;;;;22.80;61.13;94593.16;4988670;28;20602;-62
2022/08/13 10:48:45;;;;;;;15.45;14.10;;;;;;;22.83;61.24;94597.22;4983666;28;20218;-61
2022/08/13 10:51:11;;;;;;;16.52;14.93;;;;;;;22.90;61.21;94589.84;4982039;28;20228;-62
2022/08/13 10:53:55;;;;;;;16.08;14.70;;;;;;;22.79;62.44;94594.19;4982882;28;20251;-61
2022/08/13 10:56:21;;;;;;;16.52;14.77;;;;;;;22.94;61.82;94587.50;4976768;28;20295;-62
2022/08/13 10:58:47;;;;;;;16.27;14.95;;;;;;;23.03;61.64;94600.31;4981286;28;20204;-61
2022/08/13 11:01:13;;;;;;;16.50;14.75;;;;;;;22.96;62.03;94601.47;4987037;28;20432;-61
2022/08/13 11:03:39;;;;;;;17.27;15.73;;;;;;;22.90;63.11;94608.59;4980786;28;20222;-61
2022/08/13 11:06:06;;;;;;;17.20;15.52;;;;;;;22.81;62.87;94605.47;4990802;28;20276;-62
2022/08/13 11:08:36;;;;;;;17.88;16.30;;;;;;;22.87;62.14;94599.16;4988477;28;20230;-62
2022/08/13 11:11:01;;;;;;;14.10;12.88;;;;;;;22.92;61.64;94597.66;5012129;28;20198;-62
2022/08/13 11:13:27;;;;;;;13.63;12.40;;;;;;;22.94;61.77;94592.88;4992767;28;20290;-62
2022/08/13 11:15:52;;;;;;;13.23;12.02;;;;;;;22.96;61.70;94585.38;4987971;28;20701;-61
2022/08/13 11:18:21;;;;;;;13.23;12.07;;;;;;;22.96;62.38;94588.94;5000732;28;20309;-61
2022/08/13 11:21:07;;;;;;;13.45;12.35;;;;;;;22.95;63.00;94581.09;4995819;28;20231;-62
2022/08/13 11:23:34;;;;;;;13.55;12.40;;;;;;;22.97;61.78;94576.34;4979864;28;20230;-62
2022/08/13 11:26:00;;;;;;;12.70;11.60;;;;;;;22.88;61.51;94568.63;5008863;28;20231;-61
2022/08/13 11:28:25;;;;;;;12.60;11.27;;;;;;;22.98;61.41;94569.91;4991180;28;20789;-61
2022/08/13 11:30:54;;;;;;;11.63;10.73;;;;;;;22.89;60.85;94567.56;5004915;28;20224;-61
2022/08/13 11:33:22;;;;;;;12.20;11.02;;;;;;;22.92;61.49;94573.53;4998184;28;20758;-62
2022/08/13 11:35:48;;;;;;;11.52;10.57;;;;;;;22.90;60.77;94563.81;4986447;28;20231;-62
2022/08/13 11:38:15;;;;;;;11.52;10.55;;;;;;;23.00;60.35;94571.28;4989110;28;20233;-62
2022/08/13 11:40:49;;;;;;;11.15;10.25;;;;;;;23.07;60.11;94584.56;5007254;28;20238;-62
2022/08/13 11:43:15;;;;;;;10.85;10.00;;;;;;;22.96;58.45;94575.53;4991282;28;20223;-61
2022/08/13 11:45:40;;;;;;;10.95;10.15;;;;;;;22.85;58.27;94577.16;4982303;28;20231;-62
2022/08/13 11:48:06;;;;;;;10.73;9.82;;;;;;;22.82;58.10;94584.84;4976611;28;20223;-62
2022/08/13 11:50:32;;;;;;;10.63;9.82;;;;;;;22.82;57.20;94579.50;4984543;28;20220;-61
2022/08/13 11:52:58;;;;;;;10.27;9.43;;;;;;;22.68;56.80;94587.00;4994978;28;20203;-61
2022/08/13 11:55:23;;;;;;;10.73;9.95;;;;;;;22.71;56.52;94583.84;4982187;28;20235;-62
2022/08/13 11:57:58;;;;;;;11.15;10.25;;;;;;;22.67;58.21;94593.41;4986776;28;20234;-62
2022/08/13 12:00:24;;;;;;;12.95;11.95;;;;;;;22.63;59.01;94594.94;4983266;28;20327;-62